createdAt,value
2017-10-23T00:02:18.836Z,35.10
2017-10-23T00:04:47.038Z,35.20
2017-10-23T00:07:15.155Z,35.20
2017-10-23T00:09:42.585Z,34.90
2017-10-23T00:12:10.027Z,34.70
2017-10-23T00:14:37.468Z,34.90
2017-10-23T00:17:04.922Z,35.00
2017-10-23T00:19:32.347Z,34.90
2017-10-23T00:21:59.776Z,35.10
2017-10-23T00:24:27.210Z,35.30
2017-10-23T00:26:54.640Z,35.40
2017-10-23T00:29:22.073Z,35.50
2017-10-23T00:31:49.530Z,35.60
2017-10-23T00:34:16.955Z,36.30
2017-10-23T00:36:44.376Z,35.40
2017-10-23T00:39:11.822Z,35.30
2017-10-23T00:41:39.242Z,35.00
2017-10-23T00:44:06.684Z,34.80
2017-10-23T00:46:34.114Z,34.60
2017-10-23T00:49:01.551Z,34.50
2017-10-23T00:51:28.964Z,34.70
2017-10-23T00:53:56.421Z,35.00
2017-10-23T00:56:23.825Z,35.40
2017-10-23T00:58:51.278Z,35.00
2017-10-23T01:01:18.700Z,34.30
2017-10-23T01:03:46.911Z,33.70
2017-10-23T01:06:14.324Z,33.60
2017-10-23T01:08:41.756Z,33.30
2017-10-23T01:11:09.202Z,32.10
2017-10-23T01:13:36.645Z,32.50
2017-10-23T01:16:04.077Z,32.20
2017-10-23T01:18:31.513Z,31.60
2017-10-23T01:20:59.710Z,31.90
2017-10-23T01:23:27.161Z,31.80
2017-10-23T01:25:54.595Z,32.10
2017-10-23T01:28:22.034Z,32.40
2017-10-23T01:30:49.474Z,32.80
2017-10-23T01:33:16.915Z,32.50
2017-10-23T01:35:45.353Z,32.70
2017-10-23T01:38:12.804Z,32.70
2017-10-23T01:40:40.234Z,32.70
2017-10-23T01:43:07.667Z,32.70
2017-10-23T01:45:35.100Z,32.90
2017-10-23T01:48:02.533Z,33.20
2017-10-23T01:50:30.729Z,33.90
2017-10-23T01:52:58.172Z,33.80
2017-10-23T01:55:25.601Z,34.20
2017-10-23T01:57:53.793Z,35.50
2017-10-23T02:00:21.995Z,35.80
2017-10-23T02:02:49.936Z,35.70
2017-10-23T02:05:17.374Z,35.90
2017-10-23T02:07:44.803Z,36.80
2017-10-23T02:10:12.233Z,36.50
2017-10-23T02:12:39.664Z,36.50
2017-10-23T02:15:07.097Z,36.80
2017-10-23T02:17:34.516Z,36.80
2017-10-23T02:20:01.951Z,36.80
2017-10-23T02:22:29.377Z,36.80
2017-10-23T02:24:57.582Z,36.80
2017-10-23T02:27:25.000Z,36.80
2017-10-23T02:29:52.437Z,37.20
2017-10-23T02:32:19.868Z,37.40
2017-10-23T02:34:47.304Z,37.30
2017-10-23T02:37:14.752Z,37.40
2017-10-23T02:39:42.194Z,37.50
2017-10-23T02:42:10.372Z,37.80
2017-10-23T02:44:37.808Z,37.70
2017-10-23T02:47:05.233Z,37.80
2017-10-23T02:49:32.666Z,38.20
2017-10-23T02:52:00.089Z,38.10
2017-10-23T02:54:27.528Z,38.00
2017-10-23T02:56:55.711Z,37.10
2017-10-23T02:59:23.166Z,37.50
2017-10-23T03:01:50.566Z,37.30
2017-10-23T03:04:17.999Z,37.20
2017-10-23T03:06:45.424Z,37.10
2017-10-23T03:09:13.630Z,37.60
2017-10-23T03:11:41.056Z,36.90
2017-10-23T03:14:08.501Z,36.00
2017-10-23T03:16:35.926Z,36.90
2017-10-23T03:19:03.363Z,36.00
2017-10-23T03:21:30.802Z,36.00
2017-10-23T03:23:58.257Z,36.00
2017-10-23T03:26:25.679Z,35.80
2017-10-23T03:28:53.121Z,36.00
2017-10-23T03:31:20.546Z,37.00
2017-10-23T03:33:48.007Z,37.30
2017-10-23T03:36:15.443Z,37.50
2017-10-23T03:38:42.873Z,37.50
2017-10-23T03:41:11.073Z,37.50
2017-10-23T03:43:38.496Z,37.50
2017-10-23T03:46:06.711Z,36.30
2017-10-23T03:48:34.150Z,36.30
2017-10-23T03:51:01.580Z,36.00
2017-10-23T03:53:29.013Z,36.00
2017-10-23T03:55:56.446Z,36.10
2017-10-23T03:58:23.878Z,36.00
2017-10-23T04:00:51.316Z,36.10
2017-10-23T04:03:19.518Z,36.60
2017-10-23T04:05:46.967Z,36.60
2017-10-23T04:08:14.388Z,36.30
2017-10-23T04:10:41.840Z,36.80
2017-10-23T04:13:09.241Z,37.10
2017-10-23T04:15:36.695Z,37.20
2017-10-23T04:18:04.160Z,38.30
2017-10-23T04:20:31.581Z,37.40
2017-10-23T04:22:59.786Z,38.00
2017-10-23T04:25:27.230Z,37.30
2017-10-23T04:27:54.658Z,37.60
2017-10-23T04:30:22.092Z,37.50
2017-10-23T04:32:49.534Z,37.70
2017-10-23T04:35:17.967Z,38.00
2017-10-23T04:37:45.399Z,38.10
2017-10-23T04:40:12.836Z,38.00
2017-10-23T04:42:40.265Z,38.20
2017-10-23T04:45:07.702Z,38.10
2017-10-23T04:47:35.128Z,38.70
2017-10-23T04:50:03.325Z,37.90
2017-10-23T04:52:30.750Z,37.90
2017-10-23T04:54:58.180Z,37.80
2017-10-23T04:57:25.616Z,37.80
2017-10-23T04:59:53.036Z,37.60
2017-10-23T05:02:20.464Z,37.60
2017-10-23T05:04:47.902Z,37.40
2017-10-23T05:07:15.353Z,37.20
2017-10-23T05:09:42.773Z,37.60
2017-10-23T05:12:10.213Z,37.70
2017-10-23T05:14:37.635Z,37.30
2017-10-23T05:17:05.081Z,36.90
2017-10-23T05:19:32.512Z,36.40
2017-10-23T05:21:59.978Z,36.30
2017-10-23T05:24:28.304Z,35.20
2017-10-23T05:26:55.781Z,35.20
2017-10-23T05:29:24.024Z,35.20
2017-10-23T05:31:51.466Z,34.90
2017-10-23T05:34:18.923Z,35.90
2017-10-23T05:36:46.352Z,35.00
2017-10-23T05:39:13.802Z,35.10
2017-10-23T05:41:41.246Z,34.90
2017-10-23T05:44:08.669Z,34.70
2017-10-23T05:46:36.875Z,34.40
2017-10-23T05:49:04.301Z,34.40
2017-10-23T05:51:32.505Z,34.00
2017-10-23T05:54:00.228Z,33.90
2017-10-23T05:56:27.661Z,33.50
2017-10-23T05:58:55.095Z,33.50
2017-10-23T06:01:22.520Z,33.40
2017-10-23T06:03:49.951Z,33.20
2017-10-23T06:06:17.368Z,33.00
2017-10-23T06:08:44.817Z,32.90
2017-10-23T06:11:12.244Z,32.90
2017-10-23T06:13:39.680Z,32.90
2017-10-23T06:16:07.112Z,33.30
2017-10-23T06:18:34.542Z,34.10
2017-10-23T06:21:02.005Z,33.50
2017-10-23T06:23:29.411Z,33.20
2017-10-23T06:25:57.633Z,33.50
2017-10-23T06:28:25.077Z,33.50
2017-10-23T06:30:52.513Z,33.60
2017-10-23T06:33:19.955Z,33.40
2017-10-23T06:35:48.133Z,33.70
2017-10-23T06:38:15.573Z,33.70
2017-10-23T06:40:43.776Z,33.60
2017-10-23T06:43:11.220Z,33.60
2017-10-23T06:45:38.657Z,33.40
2017-10-23T06:48:06.093Z,33.30
2017-10-23T06:50:33.514Z,33.10
2017-10-23T06:53:00.954Z,32.90
2017-10-23T06:55:28.385Z,32.90
2017-10-23T06:57:56.608Z,33.00
2017-10-23T07:00:24.037Z,33.00
2017-10-23T07:02:51.470Z,33.10
2017-10-23T07:05:18.903Z,33.20
2017-10-23T07:07:46.323Z,33.30
2017-10-23T07:10:13.741Z,33.40
2017-10-23T07:12:41.953Z,33.70
2017-10-23T07:15:09.376Z,33.80
2017-10-23T07:17:36.822Z,33.90
2017-10-23T07:20:04.244Z,33.60
2017-10-23T07:22:31.696Z,33.90
2017-10-23T07:24:59.127Z,34.00
2017-10-23T07:27:26.569Z,33.70
2017-10-23T07:29:53.988Z,34.40
2017-10-23T07:32:21.412Z,34.00
2017-10-23T07:34:48.836Z,34.00
2017-10-23T07:37:16.271Z,34.20
2017-10-23T07:39:43.692Z,34.10
2017-10-23T07:42:11.123Z,34.20
2017-10-23T07:44:38.558Z,34.40
2017-10-23T07:47:05.997Z,34.50
2017-10-23T07:49:33.416Z,34.50
2017-10-23T07:52:00.864Z,34.60
2017-10-23T07:54:28.311Z,34.60
2017-10-23T07:56:55.736Z,34.50
2017-10-23T07:59:23.172Z,34.20
2017-10-23T08:01:51.361Z,34.30
2017-10-23T08:04:18.788Z,34.20
2017-10-23T08:06:46.216Z,34.20
2017-10-23T08:09:13.669Z,34.10
2017-10-23T08:11:41.106Z,34.00
2017-10-23T08:14:08.538Z,33.80
2017-10-23T08:16:35.952Z,34.10
2017-10-23T08:19:03.401Z,34.20
2017-10-23T08:21:30.836Z,33.90
2017-10-23T08:23:58.265Z,34.20
2017-10-23T08:26:25.698Z,33.80
2017-10-23T08:28:53.896Z,33.50
2017-10-23T08:31:21.324Z,33.40
2017-10-23T08:33:49.524Z,33.40
2017-10-23T08:36:16.962Z,33.20
2017-10-23T08:38:44.392Z,33.10
2017-10-23T08:41:11.822Z,33.40
2017-10-23T08:43:39.273Z,33.50
2017-10-23T08:46:06.702Z,33.20
2017-10-23T08:48:34.146Z,33.10
2017-10-23T08:51:02.341Z,33.30
2017-10-23T08:53:29.784Z,33.20
2017-10-23T08:55:57.207Z,33.30
2017-10-23T08:58:24.652Z,33.20
2017-10-23T09:00:52.073Z,33.80
2017-10-23T09:03:19.504Z,33.00
2017-10-23T09:05:46.936Z,32.80
2017-10-23T09:08:14.378Z,32.80
2017-10-23T09:10:41.801Z,32.30
2017-10-23T09:13:09.232Z,32.90
2017-10-23T09:15:36.686Z,32.50
2017-10-23T09:18:04.138Z,32.50
2017-10-23T09:20:31.580Z,32.10
2017-10-23T09:22:59.768Z,32.00
2017-10-23T09:25:27.225Z,32.00
2017-10-23T09:27:54.644Z,31.10
2017-10-23T09:30:22.073Z,30.80
2017-10-23T09:32:49.505Z,31.10
2017-10-23T09:35:16.953Z,30.90
2017-10-23T09:37:44.381Z,30.70
2017-10-23T09:40:11.809Z,30.60
2017-10-23T09:42:39.241Z,30.30
2017-10-23T09:45:06.682Z,30.50
2017-10-23T09:47:34.104Z,30.30
2017-10-23T09:50:01.540Z,29.00
2017-10-23T09:52:28.961Z,29.40
2017-10-23T09:54:56.400Z,29.50
2017-10-23T09:57:23.837Z,30.20
2017-10-23T09:59:52.065Z,30.40
2017-10-23T10:02:19.505Z,30.30
2017-10-23T10:04:46.944Z,30.90
2017-10-23T10:07:14.372Z,30.00
2017-10-23T10:09:41.817Z,30.00
2017-10-23T10:12:09.244Z,30.10
2017-10-23T10:14:36.689Z,30.00
2017-10-23T10:17:04.129Z,30.30
2017-10-23T10:19:31.612Z,29.10
2017-10-23T10:21:59.046Z,28.70
2017-10-23T10:24:26.483Z,28.20
2017-10-23T10:26:54.678Z,28.00
2017-10-23T10:29:22.104Z,28.00
2017-10-23T10:31:49.542Z,28.30
2017-10-23T10:34:16.986Z,28.00
2017-10-23T10:36:44.403Z,26.90
2017-10-23T10:39:11.861Z,27.30
2017-10-23T10:41:39.281Z,27.20
2017-10-23T10:44:07.472Z,28.30
2017-10-23T10:46:34.978Z,28.30
2017-10-23T10:49:03.916Z,28.00
2017-10-23T10:51:31.352Z,27.90
2017-10-23T10:53:58.786Z,28.10
2017-10-23T10:56:26.241Z,28.30
2017-10-23T10:58:53.662Z,28.40
2017-10-23T11:01:21.100Z,28.30
2017-10-23T11:03:48.525Z,28.10
2017-10-23T11:06:16.729Z,27.30
2017-10-23T11:08:44.157Z,27.30
2017-10-23T11:11:12.301Z,27.40
2017-10-23T11:13:39.733Z,27.30
2017-10-23T11:16:07.213Z,27.40
2017-10-23T11:18:34.641Z,27.10
2017-10-23T11:21:02.072Z,27.70
2017-10-23T11:23:29.493Z,28.30
2017-10-23T11:25:56.937Z,28.50
2017-10-23T11:28:24.377Z,27.30
2017-10-23T11:30:51.820Z,26.80
2017-10-23T11:33:19.236Z,26.00
2017-10-23T11:35:47.850Z,26.30
2017-10-23T11:38:15.302Z,26.30
2017-10-23T11:40:42.722Z,26.80
2017-10-23T11:43:12.194Z,26.90
2017-10-23T11:45:39.632Z,26.90
2017-10-23T11:48:10.286Z,27.30
2017-10-23T11:50:37.745Z,26.80
2017-10-23T11:53:05.178Z,27.50
2017-10-23T11:55:32.608Z,27.70
2017-10-23T11:58:00.051Z,25.30
2017-10-23T12:00:27.489Z,26.20
2017-10-23T12:02:54.903Z,26.90
2017-10-23T12:05:22.355Z,25.80
2017-10-23T12:07:49.784Z,26.20
2017-10-23T12:10:17.200Z,25.90
2017-10-23T12:12:44.637Z,25.80
2017-10-23T12:15:12.086Z,24.80
2017-10-23T12:17:39.516Z,24.70
2017-10-23T12:20:06.950Z,25.30
2017-10-23T12:22:34.401Z,25.50
2017-10-23T12:25:02.588Z,25.40
2017-10-23T12:27:30.088Z,25.40
2017-10-23T12:29:58.685Z,25.50
2017-10-23T12:32:26.150Z,25.00
2017-10-23T12:34:53.589Z,25.00
2017-10-23T12:37:21.026Z,25.30
2017-10-23T12:39:49.528Z,25.70
2017-10-23T12:42:16.964Z,24.40
2017-10-23T12:44:44.396Z,24.70
2017-10-23T12:47:11.844Z,24.40
2017-10-23T12:49:40.032Z,24.40
2017-10-23T12:52:08.500Z,24.40
2017-10-23T12:54:36.681Z,23.90
2017-10-23T12:57:04.134Z,23.90
2017-10-23T12:59:32.367Z,23.70
2017-10-23T13:01:59.792Z,23.70
2017-10-23T13:04:27.247Z,23.70
2017-10-23T13:06:54.689Z,24.60
2017-10-23T13:09:22.116Z,23.80
2017-10-23T13:11:49.548Z,23.50
2017-10-23T13:14:17.396Z,23.10
2017-10-23T13:16:44.820Z,22.70
2017-10-23T13:19:12.257Z,22.70
2017-10-23T13:21:39.718Z,22.90
2017-10-23T13:24:07.129Z,22.90
2017-10-23T13:26:34.576Z,23.30
2017-10-23T13:29:02.021Z,23.40
2017-10-23T13:31:29.465Z,22.70
2017-10-23T13:33:56.923Z,23.50
2017-10-23T13:36:24.361Z,23.80
2017-10-23T13:38:51.782Z,24.10
2017-10-23T13:41:19.216Z,24.20
2017-10-23T13:43:46.652Z,23.60
2017-10-23T13:46:14.089Z,24.10
2017-10-23T13:48:41.516Z,24.20
2017-10-23T13:51:09.703Z,24.60
2017-10-23T13:53:37.912Z,24.70
2017-10-23T13:56:05.342Z,24.70
2017-10-23T13:58:32.782Z,25.00
2017-10-23T14:01:00.205Z,24.20
2017-10-23T14:03:27.656Z,23.50
2017-10-23T14:05:55.085Z,24.10
2017-10-23T14:08:22.518Z,24.40
2017-10-23T14:10:49.947Z,24.00
2017-10-23T14:13:17.398Z,23.50
2017-10-23T14:15:44.830Z,24.70
2017-10-23T14:18:12.270Z,24.00
2017-10-23T14:20:39.698Z,24.70
2017-10-23T14:23:07.157Z,24.40
2017-10-23T14:25:34.569Z,24.90
2017-10-23T14:28:02.011Z,25.30
2017-10-23T14:30:29.427Z,25.20
2017-10-23T14:32:56.860Z,25.60
2017-10-23T14:35:25.061Z,24.90
2017-10-23T14:37:52.488Z,24.80
2017-10-23T14:40:19.916Z,25.00
2017-10-23T14:42:47.353Z,25.30
2017-10-23T14:45:14.775Z,25.60
2017-10-23T14:47:42.207Z,25.50
2017-10-23T14:50:09.665Z,25.70
2017-10-23T14:52:37.116Z,25.60
2017-10-23T14:55:04.537Z,25.50
2017-10-23T14:57:31.969Z,25.40
2017-10-23T14:59:59.399Z,25.50
2017-10-23T15:02:26.836Z,25.50
2017-10-23T15:04:55.036Z,25.10
2017-10-23T15:07:22.464Z,25.10
2017-10-23T15:09:49.919Z,25.00
2017-10-23T15:12:17.376Z,24.30
2017-10-23T15:14:44.812Z,25.00
2017-10-23T15:17:12.299Z,23.60
2017-10-23T15:19:39.729Z,23.60
2017-10-23T15:22:07.181Z,22.60
2017-10-23T15:24:34.622Z,23.50
2017-10-23T15:27:02.101Z,23.80
2017-10-23T15:29:29.533Z,24.10
2017-10-23T15:31:56.971Z,24.20
2017-10-23T15:34:24.470Z,24.30
2017-10-23T15:36:51.884Z,24.40
2017-10-23T15:39:19.412Z,25.20
2017-10-23T15:41:46.849Z,24.80
2017-10-23T15:44:14.287Z,25.30
2017-10-23T15:46:41.715Z,25.50
2017-10-23T15:49:09.194Z,25.80
2017-10-23T15:51:36.640Z,26.10
2017-10-23T15:54:04.068Z,26.40
2017-10-23T15:56:32.766Z,26.60
2017-10-23T15:59:00.213Z,27.00
2017-10-23T16:01:27.665Z,27.20
2017-10-23T16:03:55.095Z,27.40
2017-10-23T16:06:23.301Z,28.00
2017-10-23T16:08:50.738Z,27.90
2017-10-23T16:11:18.156Z,28.10
2017-10-23T16:13:45.589Z,28.00
2017-10-23T16:16:13.020Z,28.00
2017-10-23T16:18:40.472Z,28.00
2017-10-23T16:21:07.904Z,28.20
2017-10-23T16:23:36.117Z,28.50
2017-10-23T16:26:03.569Z,28.40
2017-10-23T16:28:30.997Z,28.70
2017-10-23T16:30:58.433Z,28.70
2017-10-23T16:33:25.858Z,28.90
2017-10-23T16:35:53.306Z,29.10
2017-10-23T16:38:20.728Z,29.20
2017-10-23T16:40:48.170Z,29.40
2017-10-23T16:43:16.360Z,29.80
2017-10-23T16:45:43.796Z,29.70
2017-10-23T16:48:11.221Z,29.80
2017-10-23T16:50:38.678Z,29.80
2017-10-23T16:53:06.111Z,29.00
2017-10-23T16:55:33.549Z,30.00
2017-10-23T16:58:00.973Z,30.20
2017-10-23T17:00:29.173Z,30.90
2017-10-23T17:02:56.609Z,30.70
2017-10-23T17:05:24.813Z,31.10
2017-10-23T17:07:53.193Z,31.00
2017-10-23T17:10:20.762Z,31.40
2017-10-23T17:12:48.193Z,31.70
2017-10-23T17:15:15.630Z,31.90
2017-10-23T17:17:43.831Z,32.30
2017-10-23T17:20:11.264Z,32.20
2017-10-23T17:22:39.457Z,32.50
2017-10-23T17:25:06.897Z,32.40
2017-10-23T17:27:34.320Z,32.50
2017-10-23T17:30:01.776Z,32.70
2017-10-23T17:32:29.200Z,32.80
2017-10-23T17:34:56.637Z,33.20
2017-10-23T17:37:24.060Z,33.30
2017-10-23T17:39:51.496Z,33.40
2017-10-23T17:42:18.928Z,33.50
2017-10-23T17:44:46.355Z,33.60
2017-10-23T17:47:13.771Z,33.90
2017-10-23T17:49:41.246Z,33.90
2017-10-23T17:52:09.440Z,33.90
2017-10-23T17:54:36.865Z,33.80
2017-10-23T17:57:04.325Z,34.00
2017-10-23T17:59:31.754Z,34.20
2017-10-23T18:01:59.200Z,34.20
2017-10-23T18:04:26.626Z,34.40
2017-10-23T18:06:54.144Z,34.60
2017-10-23T18:09:21.575Z,34.70
2017-10-23T18:11:49.045Z,34.80
2017-10-23T18:14:16.469Z,34.90
2017-10-23T18:16:43.901Z,35.00
2017-10-23T18:19:11.338Z,35.20
2017-10-23T18:21:39.548Z,35.50
2017-10-23T18:24:06.968Z,35.40
2017-10-23T18:26:34.415Z,35.80
2017-10-23T18:29:01.838Z,35.70
2017-10-23T18:31:29.278Z,36.00
2017-10-23T18:33:56.701Z,35.80
2017-10-23T18:36:24.161Z,36.00
2017-10-23T18:38:51.580Z,36.00
2017-10-23T18:41:19.017Z,36.00
2017-10-23T18:43:46.440Z,35.90
2017-10-23T18:46:13.876Z,36.10
2017-10-23T18:48:41.471Z,36.30
2017-10-23T18:51:08.892Z,36.40
2017-10-23T18:53:36.325Z,36.60
2017-10-23T18:56:03.770Z,36.70
2017-10-23T18:58:31.197Z,36.80
2017-10-23T19:00:58.640Z,36.80
2017-10-23T19:03:26.077Z,36.90
2017-10-23T19:05:53.509Z,37.20
2017-10-23T19:08:21.769Z,37.50
2017-10-23T19:10:49.216Z,37.50
2017-10-23T19:13:16.637Z,37.50
2017-10-23T19:15:44.084Z,37.90
2017-10-23T19:18:11.612Z,37.80
2017-10-23T19:20:39.069Z,37.90
2017-10-23T19:23:06.475Z,38.00
2017-10-23T19:25:33.909Z,38.30
2017-10-23T19:28:01.340Z,38.10
2017-10-23T19:30:29.541Z,38.50
2017-10-23T19:32:56.982Z,38.40
2017-10-23T19:35:24.407Z,38.40
2017-10-23T19:37:51.877Z,38.40
2017-10-23T19:40:19.285Z,38.40
2017-10-23T19:42:46.741Z,38.50
2017-10-23T19:45:14.164Z,38.50
2017-10-23T19:47:41.596Z,38.50
2017-10-23T19:50:09.797Z,39.00
2017-10-23T19:52:37.228Z,38.80
2017-10-23T19:55:04.661Z,38.70
2017-10-23T19:57:32.117Z,38.90
2017-10-23T19:59:59.545Z,39.00
2017-10-23T20:02:26.981Z,39.20
2017-10-23T20:04:54.408Z,39.10
2017-10-23T20:07:21.836Z,39.00
2017-10-23T20:09:49.291Z,39.00
2017-10-23T20:12:16.705Z,39.10
2017-10-23T20:14:44.124Z,39.00
2017-10-23T20:17:12.542Z,39.10
2017-10-23T20:19:40.043Z,39.10
2017-10-23T20:22:07.484Z,38.90
2017-10-23T20:24:34.899Z,39.10
2017-10-23T20:27:02.324Z,39.30
2017-10-23T20:29:29.764Z,39.30
2017-10-23T20:31:57.217Z,39.10
2017-10-23T20:34:24.640Z,39.30
2017-10-23T20:36:52.073Z,39.10
2017-10-23T20:39:19.505Z,39.30
2017-10-23T20:41:46.948Z,39.10
2017-10-23T20:44:14.378Z,39.40
2017-10-23T20:46:41.837Z,39.40
2017-10-23T20:49:09.260Z,39.30
2017-10-23T20:51:36.693Z,39.40
2017-10-23T20:54:04.901Z,39.70
2017-10-23T20:56:32.324Z,39.60
2017-10-23T20:58:59.766Z,39.80
2017-10-23T21:01:27.217Z,39.70
2017-10-23T21:03:54.653Z,40.00
2017-10-23T21:06:22.085Z,40.30
2017-10-23T21:08:49.522Z,40.40
2017-10-23T21:11:16.949Z,40.50
2017-10-23T21:13:45.159Z,41.00
2017-10-23T21:16:12.580Z,40.20
2017-10-23T21:18:40.019Z,40.30
2017-10-23T21:21:07.453Z,40.10
2017-10-23T21:23:34.896Z,40.40
2017-10-23T21:26:02.335Z,40.40
2017-10-23T21:28:29.776Z,40.20
2017-10-23T21:30:57.969Z,39.80
2017-10-23T21:33:25.427Z,39.80
2017-10-23T21:35:52.836Z,40.10
2017-10-23T21:38:20.268Z,39.90
2017-10-23T21:40:47.692Z,39.70
2017-10-23T21:43:15.129Z,39.90
2017-10-23T21:45:43.316Z,39.90
2017-10-23T21:48:10.757Z,39.80
2017-10-23T21:50:38.187Z,40.00
2017-10-23T21:53:05.633Z,40.20
2017-10-23T21:55:33.066Z,40.20
2017-10-23T21:58:00.511Z,40.10
2017-10-23T22:00:27.940Z,40.40
2017-10-23T22:02:56.143Z,40.40
2017-10-23T22:05:23.555Z,40.30
2017-10-23T22:07:51.008Z,40.60
2017-10-23T22:10:18.432Z,40.60
2017-10-23T22:12:45.858Z,40.60
2017-10-23T22:15:13.299Z,40.60
2017-10-23T22:17:40.721Z,41.10
2017-10-23T22:20:08.162Z,40.80
2017-10-23T22:22:35.607Z,40.70
2017-10-23T22:25:03.054Z,41.10
2017-10-23T22:27:30.484Z,41.30
2017-10-23T22:29:57.929Z,41.10
2017-10-23T22:32:25.344Z,41.00
2017-10-23T22:34:52.785Z,40.70
2017-10-23T22:37:20.470Z,40.80
2017-10-23T22:39:47.934Z,40.90
2017-10-23T22:42:15.363Z,41.10
2017-10-23T22:44:42.809Z,41.30
2017-10-23T22:47:10.249Z,41.30
2017-10-23T22:49:37.684Z,41.10
2017-10-23T22:52:05.120Z,40.90
2017-10-23T22:54:33.349Z,41.40
2017-10-23T22:57:00.772Z,41.10
2017-10-23T22:59:28.208Z,41.50
2017-10-23T23:01:55.637Z,41.20
2017-10-23T23:04:23.074Z,41.40
2017-10-23T23:06:50.506Z,41.80
2017-10-23T23:09:17.937Z,41.80
2017-10-23T23:11:46.129Z,41.50
2017-10-23T23:14:13.569Z,41.50
2017-10-23T23:16:40.998Z,41.10
2017-10-23T23:19:08.441Z,41.50
2017-10-23T23:21:35.884Z,41.50
2017-10-23T23:24:03.315Z,41.50
2017-10-23T23:26:30.745Z,41.30
2017-10-23T23:28:58.953Z,41.10
2017-10-23T23:31:26.376Z,41.20
2017-10-23T23:33:54.593Z,41.50
2017-10-23T23:36:22.013Z,41.40
2017-10-23T23:38:49.444Z,41.40
2017-10-23T23:41:16.881Z,41.30
2017-10-23T23:43:44.388Z,41.10
2017-10-23T23:46:11.820Z,40.90
2017-10-23T23:48:40.019Z,41.00
2017-10-23T23:51:07.448Z,40.90
2017-10-23T23:53:35.648Z,41.50
2017-10-23T23:56:03.082Z,41.40
2017-10-23T23:58:30.513Z,41.70
